sensor_id;sensor_type;location;lat;lon;timestamp;P1;durP1;ratioP1;P2;durP2;ratioP2
14992;SDS011;7592;51.088;13.732;2023-05-01T00:03:48;42.97;;;28.87;;
14992;SDS011;7592;51.088;13.732;2023-05-01T00:08:40;48.73;;;33.70;;
14992;SDS011;7592;51.088;13.732;2023-05-01T00:13:32;40.40;;;30.30;;
14992;SDS011;7592;51.088;13.732;2023-05-01T00:18:24;29.30;;;22.80;;
14992;SDS011;7592;51.088;13.732;2023-05-01T00:23:16;32.50;;;23.30;;
14992;SDS011;7592;51.088;13.732;2023-05-01T00:28:08;39.20;;;26.97;;
14992;SDS011;7592;51.088;13.732;2023-05-01T00:33:00;33.00;;;24.03;;
14992;SDS011;7592;51.088;13.732;2023-05-01T00:37:53;31.23;;;24.27;;
14992;SDS011;7592;51.088;13.732;2023-05-01T00:42:45;32.20;;;23.60;;
14992;SDS011;7592;51.088;13.732;2023-05-01T00:47:37;32.03;;;23.37;;
14992;SDS011;7592;51.088;13.732;2023-05-01T00:52:29;26.33;;;22.63;;
14992;SDS011;7592;51.088;13.732;2023-05-01T00:57:21;36.97;;;25.37;;
14992;SDS011;7592;51.088;13.732;2023-05-01T01:02:14;29.83;;;23.03;;
14992;SDS011;7592;51.088;13.732;2023-05-01T01:13:13;30.13;;;23.10;;
14992;SDS011;7592;51.088;13.732;2023-05-01T01:18:41;27.30;;;22.23;;
14992;SDS011;7592;51.088;13.732;2023-05-01T01:24:02;28.90;;;24.00;;
14992;SDS011;7592;51.088;13.732;2023-05-01T01:34:31;28.70;;;23.83;;
14992;SDS011;7592;51.088;13.732;2023-05-01T01:39:27;31.37;;;24.77;;
14992;SDS011;7592;51.088;13.732;2023-05-01T01:44:42;34.73;;;25.57;;
14992;SDS011;7592;51.088;13.732;2023-05-01T01:49:42;34.80;;;26.00;;
14992;SDS011;7592;51.088;13.732;2023-05-01T01:54:41;36.93;;;27.17;;
14992;SDS011;7592;51.088;13.732;2023-05-01T01:59:41;35.83;;;27.30;;
14992;SDS011;7592;51.088;13.732;2023-05-01T02:04:34;34.20;;;26.37;;
14992;SDS011;7592;51.088;13.732;2023-05-01T02:09:27;37.17;;;28.60;;
14992;SDS011;7592;51.088;13.732;2023-05-01T02:14:22;37.07;;;28.87;;
14992;SDS011;7592;51.088;13.732;2023-05-01T02:19:17;34.37;;;26.20;;
14992;SDS011;7592;51.088;13.732;2023-05-01T02:24:11;33.53;;;26.33;;
14992;SDS011;7592;51.088;13.732;2023-05-01T02:29:04;35.03;;;27.93;;
14992;SDS011;7592;51.088;13.732;2023-05-01T02:33:57;35.40;;;27.63;;
14992;SDS011;7592;51.088;13.732;2023-05-01T02:38:50;36.90;;;28.17;;
14992;SDS011;7592;51.088;13.732;2023-05-01T02:43:44;34.43;;;26.30;;
14992;SDS011;7592;51.088;13.732;2023-05-01T02:48:37;35.90;;;27.73;;
14992;SDS011;7592;51.088;13.732;2023-05-01T02:53:31;33.47;;;28.00;;
14992;SDS011;7592;51.088;13.732;2023-05-01T02:58:33;37.87;;;28.67;;
14992;SDS011;7592;51.088;13.732;2023-05-01T03:03:26;41.73;;;29.87;;
14992;SDS011;7592;51.088;13.732;2023-05-01T03:08:18;40.93;;;29.67;;
14992;SDS011;7592;51.088;13.732;2023-05-01T03:13:10;37.10;;;29.47;;
14992;SDS011;7592;51.088;13.732;2023-05-01T03:18:03;38.73;;;29.17;;
14992;SDS011;7592;51.088;13.732;2023-05-01T03:22:56;39.07;;;30.03;;
14992;SDS011;7592;51.088;13.732;2023-05-01T03:27:48;39.13;;;28.40;;
14992;SDS011;7592;51.088;13.732;2023-05-01T03:32:40;46.93;;;32.43;;
14992;SDS011;7592;51.088;13.732;2023-05-01T03:37:40;42.03;;;33.00;;
14992;SDS011;7592;51.088;13.732;2023-05-01T03:42:34;45.47;;;34.10;;
14992;SDS011;7592;51.088;13.732;2023-05-01T03:47:33;43.67;;;33.30;;
14992;SDS011;7592;51.088;13.732;2023-05-01T03:52:25;41.70;;;31.80;;
14992;SDS011;7592;51.088;13.732;2023-05-01T03:57:19;42.17;;;32.03;;
14992;SDS011;7592;51.088;13.732;2023-05-01T04:02:11;41.40;;;30.67;;
14992;SDS011;7592;51.088;13.732;2023-05-01T04:07:03;39.77;;;31.17;;
14992;SDS011;7592;51.088;13.732;2023-05-01T04:11:56;36.57;;;27.13;;
14992;SDS011;7592;51.088;13.732;2023-05-01T04:16:48;35.13;;;27.67;;
14992;SDS011;7592;51.088;13.732;2023-05-01T04:21:41;37.70;;;27.23;;
14992;SDS011;7592;51.088;13.732;2023-05-01T04:26:34;32.67;;;25.97;;
14992;SDS011;7592;51.088;13.732;2023-05-01T04:31:26;33.20;;;24.73;;
14992;SDS011;7592;51.088;13.732;2023-05-01T04:36:18;35.30;;;24.83;;
14992;SDS011;7592;51.088;13.732;2023-05-01T04:41:10;27.23;;;22.50;;
14992;SDS011;7592;51.088;13.732;2023-05-01T04:46:04;29.00;;;22.83;;
14992;SDS011;7592;51.088;13.732;2023-05-01T04:50:56;34.03;;;24.07;;
14992;SDS011;7592;51.088;13.732;2023-05-01T04:55:52;27.03;;;21.53;;
14992;SDS011;7592;51.088;13.732;2023-05-01T05:00:45;29.67;;;22.97;;
14992;SDS011;7592;51.088;13.732;2023-05-01T05:05:43;26.20;;;22.07;;
14992;SDS011;7592;51.088;13.732;2023-05-01T05:10:39;27.93;;;21.30;;
14992;SDS011;7592;51.088;13.732;2023-05-01T05:15:52;26.60;;;20.47;;
14992;SDS011;7592;51.088;13.732;2023-05-01T05:20:47;23.20;;;18.90;;
14992;SDS011;7592;51.088;13.732;2023-05-01T05:25:39;27.27;;;19.13;;
14992;SDS011;7592;51.088;13.732;2023-05-01T05:30:31;28.03;;;19.23;;
14992;SDS011;7592;51.088;13.732;2023-05-01T05:35:27;24.93;;;18.90;;
14992;SDS011;7592;51.088;13.732;2023-05-01T05:40:20;21.67;;;18.17;;
14992;SDS011;7592;51.088;13.732;2023-05-01T05:45:18;19.50;;;16.33;;
14992;SDS011;7592;51.088;13.732;2023-05-01T05:50:11;22.67;;;18.93;;
14992;SDS011;7592;51.088;13.732;2023-05-01T05:55:05;23.83;;;17.63;;
14992;SDS011;7592;51.088;13.732;2023-05-01T05:59:58;21.80;;;17.43;;
14992;SDS011;7592;51.088;13.732;2023-05-01T06:04:50;24.00;;;17.03;;
14992;SDS011;7592;51.088;13.732;2023-05-01T06:09:43;20.93;;;17.30;;
14992;SDS011;7592;51.088;13.732;2023-05-01T06:14:36;21.17;;;17.07;;
14992;SDS011;7592;51.088;13.732;2023-05-01T06:19:28;19.47;;;17.37;;
14992;SDS011;7592;51.088;13.732;2023-05-01T06:24:29;17.53;;;15.47;;
14992;SDS011;7592;51.088;13.732;2023-05-01T06:29:23;16.17;;;14.37;;
14992;SDS011;7592;51.088;13.732;2023-05-01T06:34:15;15.83;;;14.23;;
14992;SDS011;7592;51.088;13.732;2023-05-01T06:39:15;15.63;;;12.03;;
14992;SDS011;7592;51.088;13.732;2023-05-01T06:44:07;13.67;;;11.07;;
14992;SDS011;7592;51.088;13.732;2023-05-01T06:49:01;11.73;;;10.20;;
14992;SDS011;7592;51.088;13.732;2023-05-01T06:53:54;11.10;;;9.87;;
14992;SDS011;7592;51.088;13.732;2023-05-01T06:58:46;10.10;;;8.37;;
14992;SDS011;7592;51.088;13.732;2023-05-01T07:03:38;12.13;;;7.80;;
14992;SDS011;7592;51.088;13.732;2023-05-01T07:08:30;11.50;;;7.00;;
14992;SDS011;7592;51.088;13.732;2023-05-01T07:13:23;8.93;;;6.83;;
14992;SDS011;7592;51.088;13.732;2023-05-01T07:18:15;9.50;;;6.90;;
14992;SDS011;7592;51.088;13.732;2023-05-01T07:23:07;8.50;;;6.27;;
14992;SDS011;7592;51.088;13.732;2023-05-01T07:28:00;8.73;;;6.53;;
14992;SDS011;7592;51.088;13.732;2023-05-01T07:32:55;12.10;;;6.50;;
14992;SDS011;7592;51.088;13.732;2023-05-01T07:37:50;6.50;;;5.50;;
14992;SDS011;7592;51.088;13.732;2023-05-01T07:42:43;8.03;;;5.93;;
14992;SDS011;7592;51.088;13.732;2023-05-01T07:47:35;6.77;;;5.67;;
14992;SDS011;7592;51.088;13.732;2023-05-01T07:52:27;7.80;;;5.73;;
14992;SDS011;7592;51.088;13.732;2023-05-01T07:57:19;8.77;;;6.13;;
14992;SDS011;7592;51.088;13.732;2023-05-01T08:02:15;7.10;;;5.53;;
14992;SDS011;7592;51.088;13.732;2023-05-01T08:07:08;8.97;;;5.57;;
14992;SDS011;7592;51.088;13.732;2023-05-01T08:12:00;7.18;;;4.65;;
14992;SDS011;7592;51.088;13.732;2023-05-01T08:16:54;4.97;;;4.47;;
14992;SDS011;7592;51.088;13.732;2023-05-01T08:21:46;5.73;;;4.63;;
14992;SDS011;7592;51.088;13.732;2023-05-01T08:26:38;7.70;;;4.77;;
14992;SDS011;7592;51.088;13.732;2023-05-01T08:31:30;4.93;;;4.43;;
14992;SDS011;7592;51.088;13.732;2023-05-01T08:36:23;6.07;;;4.60;;
14992;SDS011;7592;51.088;13.732;2023-05-01T08:41:15;5.23;;;4.27;;
14992;SDS011;7592;51.088;13.732;2023-05-01T08:46:11;5.90;;;3.70;;
14992;SDS011;7592;51.088;13.732;2023-05-01T08:51:06;6.87;;;4.60;;
14992;SDS011;7592;51.088;13.732;2023-05-01T08:56:00;10.37;;;5.07;;
14992;SDS011;7592;51.088;13.732;2023-05-01T09:00:57;4.80;;;4.40;;
14992;SDS011;7592;51.088;13.732;2023-05-01T09:05:51;5.33;;;3.87;;
14992;SDS011;7592;51.088;13.732;2023-05-01T09:10:44;4.27;;;3.87;;
14992;SDS011;7592;51.088;13.732;2023-05-01T09:15:38;7.90;;;4.78;;
14992;SDS011;7592;51.088;13.732;2023-05-01T09:20:30;5.45;;;4.55;;
14992;SDS011;7592;51.088;13.732;2023-05-01T09:25:23;6.22;;;4.40;;
14992;SDS011;7592;51.088;13.732;2023-05-01T09:30:31;5.93;;;4.40;;
14992;SDS011;7592;51.088;13.732;2023-05-01T09:35:24;6.28;;;4.50;;
14992;SDS011;7592;51.088;13.732;2023-05-01T09:40:17;4.88;;;4.38;;
14992;SDS011;7592;51.088;13.732;2023-05-01T09:45:12;9.40;;;4.85;;
14992;SDS011;7592;51.088;13.732;2023-05-01T09:50:05;6.28;;;4.13;;
14992;SDS011;7592;51.088;13.732;2023-05-01T09:55:12;4.85;;;4.28;;
14992;SDS011;7592;51.088;13.732;2023-05-01T10:00:08;5.97;;;4.35;;
14992;SDS011;7592;51.088;13.732;2023-05-01T10:05:04;4.95;;;3.92;;
14992;SDS011;7592;51.088;13.732;2023-05-01T10:09:57;5.55;;;4.50;;
14992;SDS011;7592;51.088;13.732;2023-05-01T10:14:53;4.78;;;3.92;;
14992;SDS011;7592;51.088;13.732;2023-05-01T10:19:46;5.43;;;3.92;;
14992;SDS011;7592;51.088;13.732;2023-05-01T10:24:39;3.95;;;3.50;;
14992;SDS011;7592;51.088;13.732;2023-05-01T10:29:36;5.10;;;3.72;;
14992;SDS011;7592;51.088;13.732;2023-05-01T10:34:30;4.53;;;3.78;;
14992;SDS011;7592;51.088;13.732;2023-05-01T10:39:32;4.68;;;3.25;;
14992;SDS011;7592;51.088;13.732;2023-05-01T10:44:25;5.38;;;3.53;;
14992;SDS011;7592;51.088;13.732;2023-05-01T10:49:18;5.88;;;3.53;;
14992;SDS011;7592;51.088;13.732;2023-05-01T10:59:05;4.50;;;3.22;;
14992;SDS011;7592;51.088;13.732;2023-05-01T11:03:58;6.20;;;3.65;;
14992;SDS011;7592;51.088;13.732;2023-05-01T11:09:00;7.70;;;3.43;;
14992;SDS011;7592;51.088;13.732;2023-05-01T11:18:51;5.03;;;3.17;;
14992;SDS011;7592;51.088;13.732;2023-05-01T11:23:45;3.67;;;2.90;;
14992;SDS011;7592;51.088;13.732;2023-05-01T11:28:38;5.40;;;3.03;;
14992;SDS011;7592;51.088;13.732;2023-05-01T11:33:31;5.30;;;2.80;;
14992;SDS011;7592;51.088;13.732;2023-05-01T11:38:24;4.97;;;3.00;;
14992;SDS011;7592;51.088;13.732;2023-05-01T11:43:16;5.43;;;3.43;;
14992;SDS011;7592;51.088;13.732;2023-05-01T11:48:14;4.93;;;3.13;;
14992;SDS011;7592;51.088;13.732;2023-05-01T11:53:10;5.77;;;2.93;;
14992;SDS011;7592;51.088;13.732;2023-05-01T11:58:06;6.00;;;3.33;;
14992;SDS011;7592;51.088;13.732;2023-05-01T12:02:58;5.70;;;3.67;;
14992;SDS011;7592;51.088;13.732;2023-05-01T12:08:05;4.77;;;3.10;;
14992;SDS011;7592;51.088;13.732;2023-05-01T12:13:01;7.20;;;3.30;;
14992;SDS011;7592;51.088;13.732;2023-05-01T12:17:56;4.70;;;2.83;;
14992;SDS011;7592;51.088;13.732;2023-05-01T12:22:49;4.40;;;3.00;;
14992;SDS011;7592;51.088;13.732;2023-05-01T12:27:44;4.57;;;3.47;;
14992;SDS011;7592;51.088;13.732;2023-05-01T12:32:36;3.63;;;3.07;;
14992;SDS011;7592;51.088;13.732;2023-05-01T12:37:30;3.27;;;2.47;;
14992;SDS011;7592;51.088;13.732;2023-05-01T12:42:23;4.50;;;2.30;;
14992;SDS011;7592;51.088;13.732;2023-05-01T12:47:15;4.13;;;2.50;;
14992;SDS011;7592;51.088;13.732;2023-05-01T12:52:07;4.27;;;2.57;;
14992;SDS011;7592;51.088;13.732;2023-05-01T12:57:09;17.50;;;15.77;;
14992;SDS011;7592;51.088;13.732;2023-05-01T13:02:05;4.57;;;2.83;;
14992;SDS011;7592;51.088;13.732;2023-05-01T13:07:01;4.57;;;2.63;;
14992;SDS011;7592;51.088;13.732;2023-05-01T13:12:08;3.40;;;2.03;;
14992;SDS011;7592;51.088;13.732;2023-05-01T13:17:00;2.67;;;1.70;;
14992;SDS011;7592;51.088;13.732;2023-05-01T13:21:53;2.80;;;1.80;;
14992;SDS011;7592;51.088;13.732;2023-05-01T13:26:55;2.57;;;1.87;;
14992;SDS011;7592;51.088;13.732;2023-05-01T13:31:55;2.47;;;1.60;;
14992;SDS011;7592;51.088;13.732;2023-05-01T13:36:48;3.30;;;1.60;;
14992;SDS011;7592;51.088;13.732;2023-05-01T13:41:40;2.97;;;1.90;;
14992;SDS011;7592;51.088;13.732;2023-05-01T13:46:33;1.50;;;1.40;;
14992;SDS011;7592;51.088;13.732;2023-05-01T13:51:26;3.40;;;1.90;;
14992;SDS011;7592;51.088;13.732;2023-05-01T13:56:20;4.10;;;1.73;;
14992;SDS011;7592;51.088;13.732;2023-05-01T14:01:13;2.00;;;1.80;;
14992;SDS011;7592;51.088;13.732;2023-05-01T14:06:40;1.67;;;1.53;;
14992;SDS011;7592;51.088;13.732;2023-05-01T14:11:27;3.00;;;1.73;;
14992;SDS011;7592;51.088;13.732;2023-05-01T14:21:14;2.70;;;1.70;;
14992;SDS011;7592;51.088;13.732;2023-05-01T14:26:08;2.07;;;1.40;;
14992;SDS011;7592;51.088;13.732;2023-05-01T14:31:01;1.73;;;1.63;;
14992;SDS011;7592;51.088;13.732;2023-05-01T14:35:54;4.07;;;2.23;;
14992;SDS011;7592;51.088;13.732;2023-05-01T14:40:46;2.97;;;1.80;;
14992;SDS011;7592;51.088;13.732;2023-05-01T14:45:42;2.30;;;1.63;;
14992;SDS011;7592;51.088;13.732;2023-05-01T14:50:40;3.93;;;2.10;;
14992;SDS011;7592;51.088;13.732;2023-05-01T14:55:33;3.80;;;2.10;;
14992;SDS011;7592;51.088;13.732;2023-05-01T15:00:26;2.33;;;2.00;;
14992;SDS011;7592;51.088;13.732;2023-05-01T15:05:18;1.90;;;1.60;;
14992;SDS011;7592;51.088;13.732;2023-05-01T15:10:11;2.73;;;2.43;;
14992;SDS011;7592;51.088;13.732;2023-05-01T15:15:03;2.20;;;2.07;;
14992;SDS011;7592;51.088;13.732;2023-05-01T15:19:57;2.93;;;1.80;;
14992;SDS011;7592;51.088;13.732;2023-05-01T15:24:49;3.20;;;1.90;;
14992;SDS011;7592;51.088;13.732;2023-05-01T15:29:41;4.23;;;1.97;;
14992;SDS011;7592;51.088;13.732;2023-05-01T15:34:34;2.67;;;2.43;;
14992;SDS011;7592;51.088;13.732;2023-05-01T15:39:26;2.27;;;1.97;;
14992;SDS011;7592;51.088;13.732;2023-05-01T15:44:18;2.37;;;2.00;;
14992;SDS011;7592;51.088;13.732;2023-05-01T15:49:10;3.83;;;2.50;;
14992;SDS011;7592;51.088;13.732;2023-05-01T15:54:03;3.13;;;2.27;;
14992;SDS011;7592;51.088;13.732;2023-05-01T15:58:55;3.27;;;1.87;;
14992;SDS011;7592;51.088;13.732;2023-05-01T16:03:51;2.70;;;2.20;;
14992;SDS011;7592;51.088;13.732;2023-05-01T16:08:44;4.50;;;2.80;;
14992;SDS011;7592;51.088;13.732;2023-05-01T16:13:36;2.87;;;2.57;;
14992;SDS011;7592;51.088;13.732;2023-05-01T16:18:30;6.03;;;3.30;;
14992;SDS011;7592;51.088;13.732;2023-05-01T16:23:23;4.70;;;3.40;;
14992;SDS011;7592;51.088;13.732;2023-05-01T16:28:16;3.83;;;2.60;;
14992;SDS011;7592;51.088;13.732;2023-05-01T16:33:15;3.37;;;2.30;;
14992;SDS011;7592;51.088;13.732;2023-05-01T16:38:09;9.70;;;4.80;;
14992;SDS011;7592;51.088;13.732;2023-05-01T16:43:02;2.70;;;2.13;;
14992;SDS011;7592;51.088;13.732;2023-05-01T16:47:55;4.60;;;2.43;;
14992;SDS011;7592;51.088;13.732;2023-05-01T16:52:48;3.50;;;2.53;;
14992;SDS011;7592;51.088;13.732;2023-05-01T16:57:42;2.37;;;2.17;;
14992;SDS011;7592;51.088;13.732;2023-05-01T17:02:35;3.33;;;2.30;;
14992;SDS011;7592;51.088;13.732;2023-05-01T17:07:28;3.10;;;2.47;;
14992;SDS011;7592;51.088;13.732;2023-05-01T17:12:21;2.47;;;2.27;;
14992;SDS011;7592;51.088;13.732;2023-05-01T17:17:13;4.43;;;2.87;;
14992;SDS011;7592;51.088;13.732;2023-05-01T17:22:06;2.90;;;2.60;;
14992;SDS011;7592;51.088;13.732;2023-05-01T17:26:58;2.90;;;2.60;;
14992;SDS011;7592;51.088;13.732;2023-05-01T17:31:50;10.40;;;8.97;;
14992;SDS011;7592;51.088;13.732;2023-05-01T17:36:42;4.13;;;3.50;;
14992;SDS011;7592;51.088;13.732;2023-05-01T17:41:35;6.10;;;4.40;;
14992;SDS011;7592;51.088;13.732;2023-05-01T17:46:28;4.77;;;4.20;;
14992;SDS011;7592;51.088;13.732;2023-05-01T17:51:20;5.03;;;3.90;;
14992;SDS011;7592;51.088;13.732;2023-05-01T17:56:12;4.90;;;3.43;;
14992;SDS011;7592;51.088;13.732;2023-05-01T18:01:04;6.20;;;3.40;;
14992;SDS011;7592;51.088;13.732;2023-05-01T18:05:56;8.70;;;3.80;;
14992;SDS011;7592;51.088;13.732;2023-05-01T18:10:49;4.83;;;3.67;;
14992;SDS011;7592;51.088;13.732;2023-05-01T18:15:42;6.37;;;4.40;;
14992;SDS011;7592;51.088;13.732;2023-05-01T18:20:34;5.30;;;4.80;;
14992;SDS011;7592;51.088;13.732;2023-05-01T18:25:26;5.93;;;4.77;;
14992;SDS011;7592;51.088;13.732;2023-05-01T18:30:18;10.07;;;7.30;;
14992;SDS011;7592;51.088;13.732;2023-05-01T18:35:10;7.57;;;5.10;;
14992;SDS011;7592;51.088;13.732;2023-05-01T18:40:04;5.67;;;4.50;;
14992;SDS011;7592;51.088;13.732;2023-05-01T18:44:58;6.70;;;4.20;;
14992;SDS011;7592;51.088;13.732;2023-05-01T18:49:50;4.43;;;3.93;;
14992;SDS011;7592;51.088;13.732;2023-05-01T18:54:43;4.67;;;4.20;;
14992;SDS011;7592;51.088;13.732;2023-05-01T18:59:36;4.93;;;4.53;;
14992;SDS011;7592;51.088;13.732;2023-05-01T19:04:28;7.83;;;4.53;;
14992;SDS011;7592;51.088;13.732;2023-05-01T19:09:21;6.57;;;5.17;;
14992;SDS011;7592;51.088;13.732;2023-05-01T19:14:13;6.53;;;5.00;;
14992;SDS011;7592;51.088;13.732;2023-05-01T19:19:05;5.23;;;4.10;;
14992;SDS011;7592;51.088;13.732;2023-05-01T19:23:58;4.23;;;3.83;;
14992;SDS011;7592;51.088;13.732;2023-05-01T19:28:50;4.97;;;4.50;;
14992;SDS011;7592;51.088;13.732;2023-05-01T19:33:42;4.90;;;4.13;;
14992;SDS011;7592;51.088;13.732;2023-05-01T19:38:35;6.23;;;4.27;;
14992;SDS011;7592;51.088;13.732;2023-05-01T19:43:27;4.80;;;3.77;;
14992;SDS011;7592;51.088;13.732;2023-05-01T19:48:19;7.77;;;4.33;;
14992;SDS011;7592;51.088;13.732;2023-05-01T19:53:11;7.00;;;4.40;;
14992;SDS011;7592;51.088;13.732;2023-05-01T19:58:03;5.93;;;4.27;;
14992;SDS011;7592;51.088;13.732;2023-05-01T20:02:55;4.73;;;3.93;;
14992;SDS011;7592;51.088;13.732;2023-05-01T20:07:48;4.23;;;3.83;;
14992;SDS011;7592;51.088;13.732;2023-05-01T20:12:40;7.47;;;5.03;;
14992;SDS011;7592;51.088;13.732;2023-05-01T20:17:35;4.40;;;4.07;;
14992;SDS011;7592;51.088;13.732;2023-05-01T20:22:29;4.23;;;3.90;;
14992;SDS011;7592;51.088;13.732;2023-05-01T20:27:21;7.80;;;3.93;;
14992;SDS011;7592;51.088;13.732;2023-05-01T20:32:13;8.20;;;5.47;;
14992;SDS011;7592;51.088;13.732;2023-05-01T20:37:05;7.63;;;5.77;;
14992;SDS011;7592;51.088;13.732;2023-05-01T20:41:58;6.63;;;5.67;;
14992;SDS011;7592;51.088;13.732;2023-05-01T20:46:51;6.07;;;5.30;;
14992;SDS011;7592;51.088;13.732;2023-05-01T20:51:43;6.07;;;5.37;;
14992;SDS011;7592;51.088;13.732;2023-05-01T20:56:35;9.40;;;6.57;;
14992;SDS011;7592;51.088;13.732;2023-05-01T21:01:29;8.63;;;5.70;;
14992;SDS011;7592;51.088;13.732;2023-05-01T21:06:22;6.50;;;5.90;;
14992;SDS011;7592;51.088;13.732;2023-05-01T21:11:14;7.60;;;6.87;;
14992;SDS011;7592;51.088;13.732;2023-05-01T21:16:11;6.80;;;6.10;;
14992;SDS011;7592;51.088;13.732;2023-05-01T21:21:06;11.10;;;6.90;;
14992;SDS011;7592;51.088;13.732;2023-05-01T21:25:59;6.20;;;5.60;;
14992;SDS011;7592;51.088;13.732;2023-05-01T21:30:52;7.27;;;6.57;;
14992;SDS011;7592;51.088;13.732;2023-05-01T21:35:44;8.07;;;6.37;;
14992;SDS011;7592;51.088;13.732;2023-05-01T21:40:41;7.17;;;5.60;;
14992;SDS011;7592;51.088;13.732;2023-05-01T21:45:34;8.20;;;4.87;;
14992;SDS011;7592;51.088;13.732;2023-05-01T21:50:33;5.90;;;4.77;;
14992;SDS011;7592;51.088;13.732;2023-05-01T21:55:28;6.57;;;4.63;;
14992;SDS011;7592;51.088;13.732;2023-05-01T22:00:21;10.93;;;5.27;;
14992;SDS011;7592;51.088;13.732;2023-05-01T22:05:16;5.90;;;4.93;;
14992;SDS011;7592;51.088;13.732;2023-05-01T22:10:12;5.40;;;4.67;;
14992;SDS011;7592;51.088;13.732;2023-05-01T22:15:07;7.17;;;6.17;;
14992;SDS011;7592;51.088;13.732;2023-05-01T22:20:01;6.20;;;5.20;;
14992;SDS011;7592;51.088;13.732;2023-05-01T22:24:57;5.83;;;4.70;;
14992;SDS011;7592;51.088;13.732;2023-05-01T22:29:49;8.53;;;6.40;;
14992;SDS011;7592;51.088;13.732;2023-05-01T22:34:41;5.93;;;5.30;;
14992;SDS011;7592;51.088;13.732;2023-05-01T22:39:33;7.37;;;6.20;;
14992;SDS011;7592;51.088;13.732;2023-05-01T22:44:26;6.30;;;5.70;;
14992;SDS011;7592;51.088;13.732;2023-05-01T22:49:18;6.43;;;5.73;;
14992;SDS011;7592;51.088;13.732;2023-05-01T22:54:10;8.00;;;6.13;;
14992;SDS011;7592;51.088;13.732;2023-05-01T22:59:03;6.17;;;5.57;;
14992;SDS011;7592;51.088;13.732;2023-05-01T23:03:54;6.73;;;5.47;;
14992;SDS011;7592;51.088;13.732;2023-05-01T23:08:50;6.23;;;5.50;;
14992;SDS011;7592;51.088;13.732;2023-05-01T23:13:45;7.67;;;6.50;;
14992;SDS011;7592;51.088;13.732;2023-05-01T23:18:38;7.20;;;5.63;;
14992;SDS011;7592;51.088;13.732;2023-05-01T23:23:30;7.37;;;6.67;;
14992;SDS011;7592;51.088;13.732;2023-05-01T23:28:25;7.77;;;5.87;;
14992;SDS011;7592;51.088;13.732;2023-05-01T23:33:18;6.50;;;5.90;;
14992;SDS011;7592;51.088;13.732;2023-05-01T23:38:11;7.60;;;6.63;;
14992;SDS011;7592;51.088;13.732;2023-05-01T23:43:04;9.40;;;6.93;;
14992;SDS011;7592;51.088;13.732;2023-05-01T23:47:57;7.97;;;7.17;;
14992;SDS011;7592;51.088;13.732;2023-05-01T23:52:50;7.83;;;7.03;;
14992;SDS011;7592;51.088;13.732;2023-05-01T23:57:42;7.13;;;6.60;;
